sensor_id;sensor_type;location;lat;lon;timestamp;temperature;humidity
22908;DHT22;11620;50.050;8.690;2022-10-31T00:00:51;14.70;99.90
22908;DHT22;11620;50.050;8.690;2022-10-31T00:03:37;14.70;99.90
22908;DHT22;11620;50.050;8.690;2022-10-31T00:06:24;14.70;99.90
22908;DHT22;11620;50.050;8.690;2022-10-31T00:09:11;14.70;99.90
22908;DHT22;11620;50.050;8.690;2022-10-31T00:11:57;14.60;99.90
22908;DHT22;11620;50.050;8.690;2022-10-31T00:14:49;14.60;99.90
22908;DHT22;11620;50.050;8.690;2022-10-31T00:17:38;14.60;99.90
22908;DHT22;11620;50.050;8.690;2022-10-31T00:20:24;14.50;99.90
22908;DHT22;11620;50.050;8.690;2022-10-31T00:23:11;14.50;99.90
22908;DHT22;11620;50.050;8.690;2022-10-31T00:26:02;14.50;99.90
22908;DHT22;11620;50.050;8.690;2022-10-31T00:28:49;14.50;99.90
22908;DHT22;11620;50.050;8.690;2022-10-31T00:31:35;14.40;99.90
22908;DHT22;11620;50.050;8.690;2022-10-31T00:34:21;14.40;99.90
22908;DHT22;11620;50.050;8.690;2022-10-31T00:37:08;14.40;99.90
22908;DHT22;11620;50.050;8.690;2022-10-31T00:39:54;14.40;99.90
22908;DHT22;11620;50.050;8.690;2022-10-31T00:42:40;14.40;99.90
22908;DHT22;11620;50.050;8.690;2022-10-31T00:45:27;14.40;99.90
22908;DHT22;11620;50.050;8.690;2022-10-31T00:48:14;14.40;99.90
22908;DHT22;11620;50.050;8.690;2022-10-31T00:51:00;14.30;99.90
22908;DHT22;11620;50.050;8.690;2022-10-31T00:53:46;14.30;99.90
22908;DHT22;11620;50.050;8.690;2022-10-31T00:56:33;14.30;99.90
22908;DHT22;11620;50.050;8.690;2022-10-31T00:59:19;14.30;99.90
22908;DHT22;11620;50.050;8.690;2022-10-31T01:02:05;14.30;99.90
22908;DHT22;11620;50.050;8.690;2022-10-31T01:04:51;14.30;99.90
22908;DHT22;11620;50.050;8.690;2022-10-31T01:07:38;14.20;99.90
22908;DHT22;11620;50.050;8.690;2022-10-31T01:10:25;14.20;99.90
22908;DHT22;11620;50.050;8.690;2022-10-31T01:13:11;14.20;99.90
22908;DHT22;11620;50.050;8.690;2022-10-31T01:15:58;14.20;99.90
22908;DHT22;11620;50.050;8.690;2022-10-31T01:18:45;14.10;99.90
22908;DHT22;11620;50.050;8.690;2022-10-31T01:21:32;14.10;99.90
22908;DHT22;11620;50.050;8.690;2022-10-31T01:24:18;14.00;99.90
22908;DHT22;11620;50.050;8.690;2022-10-31T01:27:05;14.10;99.90
22908;DHT22;11620;50.050;8.690;2022-10-31T01:29:51;14.10;99.90
22908;DHT22;11620;50.050;8.690;2022-10-31T01:32:37;14.10;99.90
22908;DHT22;11620;50.050;8.690;2022-10-31T01:35:24;14.10;99.90
22908;DHT22;11620;50.050;8.690;2022-10-31T01:38:10;14.00;99.90
22908;DHT22;11620;50.050;8.690;2022-10-31T01:40:56;14.00;99.90
22908;DHT22;11620;50.050;8.690;2022-10-31T01:43:47;14.00;99.90
22908;DHT22;11620;50.050;8.690;2022-10-31T01:49:54;13.90;99.90
22908;DHT22;11620;50.050;8.690;2022-10-31T01:52:46;13.90;99.90
22908;DHT22;11620;50.050;8.690;2022-10-31T01:55:37;13.90;99.90
22908;DHT22;11620;50.050;8.690;2022-10-31T01:58:26;13.80;99.90
22908;DHT22;11620;50.050;8.690;2022-10-31T02:01:18;13.80;99.90
22908;DHT22;11620;50.050;8.690;2022-10-31T02:04:06;13.80;99.90
22908;DHT22;11620;50.050;8.690;2022-10-31T02:07:00;13.80;99.90
22908;DHT22;11620;50.050;8.690;2022-10-31T02:09:49;13.80;99.90
22908;DHT22;11620;50.050;8.690;2022-10-31T02:12:36;13.80;99.90
22908;DHT22;11620;50.050;8.690;2022-10-31T02:15:23;13.80;99.90
22908;DHT22;11620;50.050;8.690;2022-10-31T02:18:10;13.80;99.90
22908;DHT22;11620;50.050;8.690;2022-10-31T02:21:23;13.80;99.90
22908;DHT22;11620;50.050;8.690;2022-10-31T02:30:27;13.80;99.90
22908;DHT22;11620;50.050;8.690;2022-10-31T02:33:26;13.80;99.90
22908;DHT22;11620;50.050;8.690;2022-10-31T02:36:27;13.80;99.90
22908;DHT22;11620;50.050;8.690;2022-10-31T02:42:39;13.70;99.90
22908;DHT22;11620;50.050;8.690;2022-10-31T02:45:30;13.70;99.90
22908;DHT22;11620;50.050;8.690;2022-10-31T02:48:19;13.70;99.90
22908;DHT22;11620;50.050;8.690;2022-10-31T02:51:08;13.70;99.90
22908;DHT22;11620;50.050;8.690;2022-10-31T02:53:56;13.70;99.90
22908;DHT22;11620;50.050;8.690;2022-10-31T02:56:42;13.70;99.90
22908;DHT22;11620;50.050;8.690;2022-10-31T02:59:29;13.70;99.90
22908;DHT22;11620;50.050;8.690;2022-10-31T03:11:32;13.60;99.90
22908;DHT22;11620;50.050;8.690;2022-10-31T03:14:43;13.60;99.90
22908;DHT22;11620;50.050;8.690;2022-10-31T03:17:37;13.60;99.90
22908;DHT22;11620;50.050;8.690;2022-10-31T03:21:16;13.60;99.90
22908;DHT22;11620;50.050;8.690;2022-10-31T03:23:44;13.60;99.90
22908;DHT22;11620;50.050;8.690;2022-10-31T03:26:47;13.60;99.90
22908;DHT22;11620;50.050;8.690;2022-10-31T03:29:36;13.60;99.90
22908;DHT22;11620;50.050;8.690;2022-10-31T03:35:27;13.50;99.90
22908;DHT22;11620;50.050;8.690;2022-10-31T03:38:15;13.50;99.90
22908;DHT22;11620;50.050;8.690;2022-10-31T03:41:04;13.50;99.90
22908;DHT22;11620;50.050;8.690;2022-10-31T03:43:55;13.50;99.90
22908;DHT22;11620;50.050;8.690;2022-10-31T03:46:44;13.70;99.90
22908;DHT22;11620;50.050;8.690;2022-10-31T03:49:32;13.50;99.90
22908;DHT22;11620;50.050;8.690;2022-10-31T03:58:53;13.50;99.90
22908;DHT22;11620;50.050;8.690;2022-10-31T04:01:47;13.50;99.90
22908;DHT22;11620;50.050;8.690;2022-10-31T04:04:35;13.50;99.90
22908;DHT22;11620;50.050;8.690;2022-10-31T04:07:26;13.50;99.90
22908;DHT22;11620;50.050;8.690;2022-10-31T04:10:15;13.40;99.90
22908;DHT22;11620;50.050;8.690;2022-10-31T04:13:09;13.40;99.90
22908;DHT22;11620;50.050;8.690;2022-10-31T04:15:57;13.50;99.90
22908;DHT22;11620;50.050;8.690;2022-10-31T04:18:44;13.40;99.90
22908;DHT22;11620;50.050;8.690;2022-10-31T04:21:30;13.40;99.90
22908;DHT22;11620;50.050;8.690;2022-10-31T04:24:16;13.40;99.90
22908;DHT22;11620;50.050;8.690;2022-10-31T04:27:03;13.40;99.90
22908;DHT22;11620;50.050;8.690;2022-10-31T04:29:49;13.40;99.90
22908;DHT22;11620;50.050;8.690;2022-10-31T04:32:35;13.40;99.90
22908;DHT22;11620;50.050;8.690;2022-10-31T04:35:22;13.40;99.90
22908;DHT22;11620;50.050;8.690;2022-10-31T04:38:08;13.40;99.90
22908;DHT22;11620;50.050;8.690;2022-10-31T04:40:55;13.40;99.90
22908;DHT22;11620;50.050;8.690;2022-10-31T04:43:41;13.40;99.90
22908;DHT22;11620;50.050;8.690;2022-10-31T04:46:27;13.40;99.90
22908;DHT22;11620;50.050;8.690;2022-10-31T04:49:14;13.40;99.90
22908;DHT22;11620;50.050;8.690;2022-10-31T04:52:00;13.40;99.90
22908;DHT22;11620;50.050;8.690;2022-10-31T04:54:46;13.30;99.90
22908;DHT22;11620;50.050;8.690;2022-10-31T04:57:39;13.40;99.90
22908;DHT22;11620;50.050;8.690;2022-10-31T05:00:25;13.40;99.90
22908;DHT22;11620;50.050;8.690;2022-10-31T05:03:15;13.40;99.90
22908;DHT22;11620;50.050;8.690;2022-10-31T05:06:03;13.40;99.90
22908;DHT22;11620;50.050;8.690;2022-10-31T05:08:50;13.40;99.90
22908;DHT22;11620;50.050;8.690;2022-10-31T05:11:38;13.40;99.90
22908;DHT22;11620;50.050;8.690;2022-10-31T05:14:25;13.40;99.90
22908;DHT22;11620;50.050;8.690;2022-10-31T05:17:14;13.40;99.90
22908;DHT22;11620;50.050;8.690;2022-10-31T05:20:00;13.40;99.90
22908;DHT22;11620;50.050;8.690;2022-10-31T05:22:50;13.40;99.90
22908;DHT22;11620;50.050;8.690;2022-10-31T05:25:37;13.30;99.90
22908;DHT22;11620;50.050;8.690;2022-10-31T05:28:23;13.40;99.90
22908;DHT22;11620;50.050;8.690;2022-10-31T05:31:09;13.30;99.90
22908;DHT22;11620;50.050;8.690;2022-10-31T05:34:01;13.30;99.90
22908;DHT22;11620;50.050;8.690;2022-10-31T05:36:47;13.30;99.90
22908;DHT22;11620;50.050;8.690;2022-10-31T05:39:34;13.30;99.90
22908;DHT22;11620;50.050;8.690;2022-10-31T05:42:20;13.30;99.90
22908;DHT22;11620;50.050;8.690;2022-10-31T05:45:14;13.30;99.90
22908;DHT22;11620;50.050;8.690;2022-10-31T05:48:02;13.30;99.90
22908;DHT22;11620;50.050;8.690;2022-10-31T05:50:49;13.30;99.90
22908;DHT22;11620;50.050;8.690;2022-10-31T05:53:35;13.30;99.90
22908;DHT22;11620;50.050;8.690;2022-10-31T05:56:21;13.30;99.90
22908;DHT22;11620;50.050;8.690;2022-10-31T05:59:08;13.30;99.90
22908;DHT22;11620;50.050;8.690;2022-10-31T06:01:54;13.30;99.90
22908;DHT22;11620;50.050;8.690;2022-10-31T06:04:40;13.20;99.90
22908;DHT22;11620;50.050;8.690;2022-10-31T06:07:25;13.20;99.90
22908;DHT22;11620;50.050;8.690;2022-10-31T06:10:10;13.20;99.90
22908;DHT22;11620;50.050;8.690;2022-10-31T06:12:55;13.20;99.90
22908;DHT22;11620;50.050;8.690;2022-10-31T06:15:41;13.20;99.90
22908;DHT22;11620;50.050;8.690;2022-10-31T06:18:25;13.30;99.90
22908;DHT22;11620;50.050;8.690;2022-10-31T06:21:10;13.20;99.90
22908;DHT22;11620;50.050;8.690;2022-10-31T06:23:54;13.20;99.90
22908;DHT22;11620;50.050;8.690;2022-10-31T06:26:38;13.20;99.90
22908;DHT22;11620;50.050;8.690;2022-10-31T06:29:23;13.20;99.90
22908;DHT22;11620;50.050;8.690;2022-10-31T06:32:11;13.20;99.90
22908;DHT22;11620;50.050;8.690;2022-10-31T06:34:56;13.20;99.90
22908;DHT22;11620;50.050;8.690;2022-10-31T06:37:40;13.20;99.90
22908;DHT22;11620;50.050;8.690;2022-10-31T06:40:25;13.20;99.90
22908;DHT22;11620;50.050;8.690;2022-10-31T06:43:10;13.30;99.90
22908;DHT22;11620;50.050;8.690;2022-10-31T06:45:55;13.30;99.90
22908;DHT22;11620;50.050;8.690;2022-10-31T06:48:43;13.30;99.90
22908;DHT22;11620;50.050;8.690;2022-10-31T06:51:27;13.40;99.90
22908;DHT22;11620;50.050;8.690;2022-10-31T06:54:11;13.50;99.90
22908;DHT22;11620;50.050;8.690;2022-10-31T06:56:56;13.40;99.90
22908;DHT22;11620;50.050;8.690;2022-10-31T06:59:40;13.50;99.90
22908;DHT22;11620;50.050;8.690;2022-10-31T07:02:25;13.50;99.90
22908;DHT22;11620;50.050;8.690;2022-10-31T07:05:09;13.50;99.90
22908;DHT22;11620;50.050;8.690;2022-10-31T07:07:55;13.60;99.90
22908;DHT22;11620;50.050;8.690;2022-10-31T07:10:41;13.60;99.90
22908;DHT22;11620;50.050;8.690;2022-10-31T07:13:26;13.60;99.90
22908;DHT22;11620;50.050;8.690;2022-10-31T07:16:10;13.60;99.90
22908;DHT22;11620;50.050;8.690;2022-10-31T07:18:56;13.60;99.90
22908;DHT22;11620;50.050;8.690;2022-10-31T07:21:41;13.60;99.90
22908;DHT22;11620;50.050;8.690;2022-10-31T07:24:25;13.60;99.90
22908;DHT22;11620;50.050;8.690;2022-10-31T07:27:10;13.60;99.90
22908;DHT22;11620;50.050;8.690;2022-10-31T07:29:54;13.60;99.90
22908;DHT22;11620;50.050;8.690;2022-10-31T07:35:25;13.80;99.90
22908;DHT22;11620;50.050;8.690;2022-10-31T07:38:11;13.80;99.90
22908;DHT22;11620;50.050;8.690;2022-10-31T07:40:55;13.80;99.90
22908;DHT22;11620;50.050;8.690;2022-10-31T07:43:39;13.90;99.90
22908;DHT22;11620;50.050;8.690;2022-10-31T07:46:24;13.90;99.90
22908;DHT22;11620;50.050;8.690;2022-10-31T07:49:08;14.00;99.90
22908;DHT22;11620;50.050;8.690;2022-10-31T07:51:53;14.00;99.90
22908;DHT22;11620;50.050;8.690;2022-10-31T07:54:37;14.20;99.90
22908;DHT22;11620;50.050;8.690;2022-10-31T07:57:21;14.40;99.90
22908;DHT22;11620;50.050;8.690;2022-10-31T08:00:08;14.70;99.90
22908;DHT22;11620;50.050;8.690;2022-10-31T08:05:47;15.10;99.90
22908;DHT22;11620;50.050;8.690;2022-10-31T08:08:32;15.30;99.90
22908;DHT22;11620;50.050;8.690;2022-10-31T08:11:16;15.50;99.90
22908;DHT22;11620;50.050;8.690;2022-10-31T08:14:01;15.60;99.90
22908;DHT22;11620;50.050;8.690;2022-10-31T08:16:45;15.60;99.90
22908;DHT22;11620;50.050;8.690;2022-10-31T08:19:30;15.80;99.90
22908;DHT22;11620;50.050;8.690;2022-10-31T08:22:14;15.80;99.90
22908;DHT22;11620;50.050;8.690;2022-10-31T08:24:59;15.80;99.90
22908;DHT22;11620;50.050;8.690;2022-10-31T08:27:52;15.70;99.90
22908;DHT22;11620;50.050;8.690;2022-10-31T08:30:37;15.60;99.90
22908;DHT22;11620;50.050;8.690;2022-10-31T08:33:24;15.60;99.90
22908;DHT22;11620;50.050;8.690;2022-10-31T08:36:09;15.50;99.90
22908;DHT22;11620;50.050;8.690;2022-10-31T08:38:54;15.50;99.90
22908;DHT22;11620;50.050;8.690;2022-10-31T08:41:38;15.50;99.90
22908;DHT22;11620;50.050;8.690;2022-10-31T08:44:22;15.50;99.90
22908;DHT22;11620;50.050;8.690;2022-10-31T08:47:07;15.50;99.90
22908;DHT22;11620;50.050;8.690;2022-10-31T08:49:51;15.60;99.90
22908;DHT22;11620;50.050;8.690;2022-10-31T08:52:36;15.70;99.90
22908;DHT22;11620;50.050;8.690;2022-10-31T08:55:20;15.60;99.90
22908;DHT22;11620;50.050;8.690;2022-10-31T08:58:07;15.70;99.90
22908;DHT22;11620;50.050;8.690;2022-10-31T09:00:53;15.70;99.90
22908;DHT22;11620;50.050;8.690;2022-10-31T09:03:38;15.70;99.90
22908;DHT22;11620;50.050;8.690;2022-10-31T09:06:22;15.70;99.90
22908;DHT22;11620;50.050;8.690;2022-10-31T09:09:06;15.70;99.90
22908;DHT22;11620;50.050;8.690;2022-10-31T09:11:51;15.80;99.90
22908;DHT22;11620;50.050;8.690;2022-10-31T09:14:36;15.80;99.90
22908;DHT22;11620;50.050;8.690;2022-10-31T09:17:20;15.80;99.90
22908;DHT22;11620;50.050;8.690;2022-10-31T09:20:05;15.90;99.90
22908;DHT22;11620;50.050;8.690;2022-10-31T09:22:56;15.90;99.90
22908;DHT22;11620;50.050;8.690;2022-10-31T09:25:45;15.90;99.90
22908;DHT22;11620;50.050;8.690;2022-10-31T09:28:30;16.00;99.90
22908;DHT22;11620;50.050;8.690;2022-10-31T09:31:15;16.20;99.90
22908;DHT22;11620;50.050;8.690;2022-10-31T09:34:00;16.30;99.90
22908;DHT22;11620;50.050;8.690;2022-10-31T09:36:44;16.40;99.90
22908;DHT22;11620;50.050;8.690;2022-10-31T09:39:30;16.40;99.90
22908;DHT22;11620;50.050;8.690;2022-10-31T09:45:21;16.50;99.90
22908;DHT22;11620;50.050;8.690;2022-10-31T09:48:37;16.70;99.90
22908;DHT22;11620;50.050;8.690;2022-10-31T09:54:23;17.00;99.90
22908;DHT22;11620;50.050;8.690;2022-10-31T09:57:14;17.10;99.90
22908;DHT22;11620;50.050;8.690;2022-10-31T09:59:59;17.20;99.90
22908;DHT22;11620;50.050;8.690;2022-10-31T10:02:57;17.30;99.90
22908;DHT22;11620;50.050;8.690;2022-10-31T10:05:46;17.50;99.90
22908;DHT22;11620;50.050;8.690;2022-10-31T10:08:35;17.60;99.90
22908;DHT22;11620;50.050;8.690;2022-10-31T10:24:12;17.90;99.90
22908;DHT22;11620;50.050;8.690;2022-10-31T10:30:13;17.90;99.90
22908;DHT22;11620;50.050;8.690;2022-10-31T10:33:02;17.90;99.90
22908;DHT22;11620;50.050;8.690;2022-10-31T10:36:00;18.00;99.90
22908;DHT22;11620;50.050;8.690;2022-10-31T10:41:43;18.00;99.90
22908;DHT22;11620;50.050;8.690;2022-10-31T10:44:28;18.10;99.90
22908;DHT22;11620;50.050;8.690;2022-10-31T10:47:43;18.30;99.90
22908;DHT22;11620;50.050;8.690;2022-10-31T10:50:35;18.40;99.90
22908;DHT22;11620;50.050;8.690;2022-10-31T10:53:36;18.50;99.90
22908;DHT22;11620;50.050;8.690;2022-10-31T10:59:21;18.50;99.90
22908;DHT22;11620;50.050;8.690;2022-10-31T11:02:19;18.60;99.90
22908;DHT22;11620;50.050;8.690;2022-10-31T11:05:36;18.70;99.90
22908;DHT22;11620;50.050;8.690;2022-10-31T11:08:30;18.90;99.90
22908;DHT22;11620;50.050;8.690;2022-10-31T11:11:31;19.00;99.90
22908;DHT22;11620;50.050;8.690;2022-10-31T11:14:17;19.10;99.90
22908;DHT22;11620;50.050;8.690;2022-10-31T11:17:16;19.20;99.90
22908;DHT22;11620;50.050;8.690;2022-10-31T11:23:16;19.70;99.90
22908;DHT22;11620;50.050;8.690;2022-10-31T11:26:04;19.80;99.90
22908;DHT22;11620;50.050;8.690;2022-10-31T11:28:59;20.00;99.90
22908;DHT22;11620;50.050;8.690;2022-10-31T11:31:45;20.10;99.90
22908;DHT22;11620;50.050;8.690;2022-10-31T11:34:42;20.30;99.90
22908;DHT22;11620;50.050;8.690;2022-10-31T11:37:32;20.40;99.90
22908;DHT22;11620;50.050;8.690;2022-10-31T11:40:24;20.50;99.90
22908;DHT22;11620;50.050;8.690;2022-10-31T11:43:15;20.60;99.90
22908;DHT22;11620;50.050;8.690;2022-10-31T11:46:09;20.70;99.90
22908;DHT22;11620;50.050;8.690;2022-10-31T11:48:56;20.80;99.90
22908;DHT22;11620;50.050;8.690;2022-10-31T11:51:40;20.90;99.90
22908;DHT22;11620;50.050;8.690;2022-10-31T11:54:31;21.00;99.90
22908;DHT22;11620;50.050;8.690;2022-10-31T11:57:33;21.00;99.90
22908;DHT22;11620;50.050;8.690;2022-10-31T12:09:24;21.00;99.90
22908;DHT22;11620;50.050;8.690;2022-10-31T12:21:06;21.00;99.90
22908;DHT22;11620;50.050;8.690;2022-10-31T12:36:26;21.20;99.90
22908;DHT22;11620;50.050;8.690;2022-10-31T12:39:18;21.30;99.90
22908;DHT22;11620;50.050;8.690;2022-10-31T12:54:13;21.70;99.90
22908;DHT22;11620;50.050;8.690;2022-10-31T12:57:39;21.70;99.90
22908;DHT22;11620;50.050;8.690;2022-10-31T13:00:26;21.60;99.90
22908;DHT22;11620;50.050;8.690;2022-10-31T13:03:25;21.50;99.90
22908;DHT22;11620;50.050;8.690;2022-10-31T13:06:17;21.50;99.90
22908;DHT22;11620;50.050;8.690;2022-10-31T13:09:07;21.40;99.90
22908;DHT22;11620;50.050;8.690;2022-10-31T13:11:58;21.30;99.90
22908;DHT22;11620;50.050;8.690;2022-10-31T13:14:52;21.20;99.90
22908;DHT22;11620;50.050;8.690;2022-10-31T13:17:45;21.10;99.90
22908;DHT22;11620;50.050;8.690;2022-10-31T13:20:41;21.10;99.90
22908;DHT22;11620;50.050;8.690;2022-10-31T13:23:35;20.90;99.90
22908;DHT22;11620;50.050;8.690;2022-10-31T13:26:35;20.90;99.90
22908;DHT22;11620;50.050;8.690;2022-10-31T13:29:30;21.00;99.90
22908;DHT22;11620;50.050;8.690;2022-10-31T13:32:16;21.00;99.90
22908;DHT22;11620;50.050;8.690;2022-10-31T13:35:01;21.00;99.90
22908;DHT22;11620;50.050;8.690;2022-10-31T13:37:56;20.90;99.90
22908;DHT22;11620;50.050;8.690;2022-10-31T13:40:53;20.80;99.90
22908;DHT22;11620;50.050;8.690;2022-10-31T13:46:44;20.80;99.90
22908;DHT22;11620;50.050;8.690;2022-10-31T13:54:58;20.50;99.90
22908;DHT22;11620;50.050;8.690;2022-10-31T13:57:43;20.60;99.90
22908;DHT22;11620;50.050;8.690;2022-10-31T14:00:28;20.60;99.90
22908;DHT22;11620;50.050;8.690;2022-10-31T14:03:20;20.50;99.90
22908;DHT22;11620;50.050;8.690;2022-10-31T14:06:06;20.60;99.90
22908;DHT22;11620;50.050;8.690;2022-10-31T14:08:53;20.50;99.90
22908;DHT22;11620;50.050;8.690;2022-10-31T14:11:37;20.50;99.90
22908;DHT22;11620;50.050;8.690;2022-10-31T14:14:32;20.50;99.90
22908;DHT22;11620;50.050;8.690;2022-10-31T14:17:25;20.50;99.90
22908;DHT22;11620;50.050;8.690;2022-10-31T14:22:55;20.40;99.90
22908;DHT22;11620;50.050;8.690;2022-10-31T14:25:39;20.30;99.90
22908;DHT22;11620;50.050;8.690;2022-10-31T14:28:35;20.30;99.90
22908;DHT22;11620;50.050;8.690;2022-10-31T14:31:35;20.30;99.90
22908;DHT22;11620;50.050;8.690;2022-10-31T14:34:28;20.30;99.90
22908;DHT22;11620;50.050;8.690;2022-10-31T14:43:48;20.40;99.90
22908;DHT22;11620;50.050;8.690;2022-10-31T14:53:34;20.90;99.90
22908;DHT22;11620;50.050;8.690;2022-10-31T14:56:26;21.00;99.90
22908;DHT22;11620;50.050;8.690;2022-10-31T14:59:14;21.10;99.90
22908;DHT22;11620;50.050;8.690;2022-10-31T15:02:09;21.00;99.90
22908;DHT22;11620;50.050;8.690;2022-10-31T15:04:57;20.80;99.90
22908;DHT22;11620;50.050;8.690;2022-10-31T15:07:55;20.70;99.90
22908;DHT22;11620;50.050;8.690;2022-10-31T15:10:45;20.70;99.90
22908;DHT22;11620;50.050;8.690;2022-10-31T15:13:32;20.60;99.90
22908;DHT22;11620;50.050;8.690;2022-10-31T15:16:24;20.60;99.90
22908;DHT22;11620;50.050;8.690;2022-10-31T15:19:16;20.60;99.90
22908;DHT22;11620;50.050;8.690;2022-10-31T15:22:05;20.50;99.90
22908;DHT22;11620;50.050;8.690;2022-10-31T15:24:55;20.50;99.90
22908;DHT22;11620;50.050;8.690;2022-10-31T15:27:42;20.40;99.90
22908;DHT22;11620;50.050;8.690;2022-10-31T15:30:29;20.30;99.90
22908;DHT22;11620;50.050;8.690;2022-10-31T15:33:21;20.20;99.90
22908;DHT22;11620;50.050;8.690;2022-10-31T15:36:22;20.10;99.90
22908;DHT22;11620;50.050;8.690;2022-10-31T15:39:11;20.00;99.90
22908;DHT22;11620;50.050;8.690;2022-10-31T15:41:58;19.80;99.90
22908;DHT22;11620;50.050;8.690;2022-10-31T15:44:47;19.80;99.90
22908;DHT22;11620;50.050;8.690;2022-10-31T15:47:36;19.70;99.90
22908;DHT22;11620;50.050;8.690;2022-10-31T15:56:12;19.60;99.90
22908;DHT22;11620;50.050;8.690;2022-10-31T15:59:00;19.40;99.90
22908;DHT22;11620;50.050;8.690;2022-10-31T16:02:01;19.40;99.90
22908;DHT22;11620;50.050;8.690;2022-10-31T16:04:52;19.50;99.90
22908;DHT22;11620;50.050;8.690;2022-10-31T16:07:48;19.40;99.90
22908;DHT22;11620;50.050;8.690;2022-10-31T16:10:35;19.40;99.90
22908;DHT22;11620;50.050;8.690;2022-10-31T16:13:29;19.40;99.90
22908;DHT22;11620;50.050;8.690;2022-10-31T16:16:17;19.30;99.90
22908;DHT22;11620;50.050;8.690;2022-10-31T16:19:15;19.30;99.90
22908;DHT22;11620;50.050;8.690;2022-10-31T16:22:09;19.20;99.90
22908;DHT22;11620;50.050;8.690;2022-10-31T16:27:53;19.00;99.90
22908;DHT22;11620;50.050;8.690;2022-10-31T16:30:43;18.90;99.90
22908;DHT22;11620;50.050;8.690;2022-10-31T16:36:29;18.70;99.90
22908;DHT22;11620;50.050;8.690;2022-10-31T16:39:17;18.70;99.90
22908;DHT22;11620;50.050;8.690;2022-10-31T16:42:04;18.60;99.90
22908;DHT22;11620;50.050;8.690;2022-10-31T16:44:50;18.50;99.90
22908;DHT22;11620;50.050;8.690;2022-10-31T16:47:36;18.40;99.90
22908;DHT22;11620;50.050;8.690;2022-10-31T16:50:25;18.30;99.90
22908;DHT22;11620;50.050;8.690;2022-10-31T16:53:11;18.30;99.90
22908;DHT22;11620;50.050;8.690;2022-10-31T16:56:02;18.30;99.90
22908;DHT22;11620;50.050;8.690;2022-10-31T16:58:49;18.20;99.90
22908;DHT22;11620;50.050;8.690;2022-10-31T17:01:36;18.20;99.90
22908;DHT22;11620;50.050;8.690;2022-10-31T17:04:22;18.10;99.90
22908;DHT22;11620;50.050;8.690;2022-10-31T17:07:08;18.10;99.90
22908;DHT22;11620;50.050;8.690;2022-10-31T17:09:55;18.10;99.90
22908;DHT22;11620;50.050;8.690;2022-10-31T17:12:44;18.00;99.90
22908;DHT22;11620;50.050;8.690;2022-10-31T17:15:38;18.00;99.90
22908;DHT22;11620;50.050;8.690;2022-10-31T17:18:27;18.20;99.90
22908;DHT22;11620;50.050;8.690;2022-10-31T17:21:22;18.10;99.90
22908;DHT22;11620;50.050;8.690;2022-10-31T17:24:12;18.20;99.90
22908;DHT22;11620;50.050;8.690;2022-10-31T17:26:59;18.10;99.90
22908;DHT22;11620;50.050;8.690;2022-10-31T17:29:45;18.10;99.90
22908;DHT22;11620;50.050;8.690;2022-10-31T17:32:31;18.20;99.90
22908;DHT22;11620;50.050;8.690;2022-10-31T17:35:18;18.20;99.90
22908;DHT22;11620;50.050;8.690;2022-10-31T17:38:05;18.10;99.90
22908;DHT22;11620;50.050;8.690;2022-10-31T17:40:51;17.90;99.90
22908;DHT22;11620;50.050;8.690;2022-10-31T17:43:37;18.00;99.90
22908;DHT22;11620;50.050;8.690;2022-10-31T17:46:27;18.00;99.90
22908;DHT22;11620;50.050;8.690;2022-10-31T17:49:14;18.00;99.90
22908;DHT22;11620;50.050;8.690;2022-10-31T17:52:00;18.00;99.90
22908;DHT22;11620;50.050;8.690;2022-10-31T17:54:46;17.90;99.90
22908;DHT22;11620;50.050;8.690;2022-10-31T17:57:33;17.80;99.90
22908;DHT22;11620;50.050;8.690;2022-10-31T18:00:21;17.70;99.90
22908;DHT22;11620;50.050;8.690;2022-10-31T18:03:09;17.80;99.90
22908;DHT22;11620;50.050;8.690;2022-10-31T18:05:57;17.80;99.90
22908;DHT22;11620;50.050;8.690;2022-10-31T18:08:43;17.80;99.90
22908;DHT22;11620;50.050;8.690;2022-10-31T18:11:30;17.70;99.90
22908;DHT22;11620;50.050;8.690;2022-10-31T18:14:17;17.80;99.90
22908;DHT22;11620;50.050;8.690;2022-10-31T18:17:03;17.70;99.90
22908;DHT22;11620;50.050;8.690;2022-10-31T18:19:49;17.70;99.90
22908;DHT22;11620;50.050;8.690;2022-10-31T18:22:36;17.60;99.90
22908;DHT22;11620;50.050;8.690;2022-10-31T18:25:22;17.50;99.90
22908;DHT22;11620;50.050;8.690;2022-10-31T18:28:09;17.50;99.90
22908;DHT22;11620;50.050;8.690;2022-10-31T18:30:58;17.60;99.90
22908;DHT22;11620;50.050;8.690;2022-10-31T18:33:45;17.60;99.90
22908;DHT22;11620;50.050;8.690;2022-10-31T18:36:32;17.60;99.90
22908;DHT22;11620;50.050;8.690;2022-10-31T18:39:18;17.60;99.90
22908;DHT22;11620;50.050;8.690;2022-10-31T18:42:05;17.50;99.90
22908;DHT22;11620;50.050;8.690;2022-10-31T18:44:51;17.50;99.90
22908;DHT22;11620;50.050;8.690;2022-10-31T18:47:37;17.50;99.90
22908;DHT22;11620;50.050;8.690;2022-10-31T18:50:24;17.40;99.90
22908;DHT22;11620;50.050;8.690;2022-10-31T18:53:10;17.30;99.90
22908;DHT22;11620;50.050;8.690;2022-10-31T18:55:56;17.30;99.90
22908;DHT22;11620;50.050;8.690;2022-10-31T18:58:43;17.30;99.90
22908;DHT22;11620;50.050;8.690;2022-10-31T19:01:30;17.10;99.90
22908;DHT22;11620;50.050;8.690;2022-10-31T19:04:16;16.80;99.90
22908;DHT22;11620;50.050;8.690;2022-10-31T19:07:05;16.80;99.90
22908;DHT22;11620;50.050;8.690;2022-10-31T19:09:52;16.80;99.90
22908;DHT22;11620;50.050;8.690;2022-10-31T19:12:38;16.90;99.90
22908;DHT22;11620;50.050;8.690;2022-10-31T19:15:24;16.90;99.90
22908;DHT22;11620;50.050;8.690;2022-10-31T19:18:11;16.90;99.90
22908;DHT22;11620;50.050;8.690;2022-10-31T19:20:57;16.90;99.90
22908;DHT22;11620;50.050;8.690;2022-10-31T19:23:44;16.80;99.90
22908;DHT22;11620;50.050;8.690;2022-10-31T19:26:32;16.80;99.90
22908;DHT22;11620;50.050;8.690;2022-10-31T19:29:18;16.80;99.90
22908;DHT22;11620;50.050;8.690;2022-10-31T19:32:05;16.70;99.90
22908;DHT22;11620;50.050;8.690;2022-10-31T19:34:51;16.60;99.90
22908;DHT22;11620;50.050;8.690;2022-10-31T19:37:38;16.70;99.90
22908;DHT22;11620;50.050;8.690;2022-10-31T19:40:25;16.70;99.90
22908;DHT22;11620;50.050;8.690;2022-10-31T19:43:11;16.60;99.90
22908;DHT22;11620;50.050;8.690;2022-10-31T19:46:02;16.60;99.90
22908;DHT22;11620;50.050;8.690;2022-10-31T19:48:48;16.50;99.90
22908;DHT22;11620;50.050;8.690;2022-10-31T19:51:35;16.40;99.90
22908;DHT22;11620;50.050;8.690;2022-10-31T19:54:21;16.50;99.90
22908;DHT22;11620;50.050;8.690;2022-10-31T19:57:08;16.40;99.90
22908;DHT22;11620;50.050;8.690;2022-10-31T19:59:54;16.40;99.90
22908;DHT22;11620;50.050;8.690;2022-10-31T20:02:40;16.40;99.90
22908;DHT22;11620;50.050;8.690;2022-10-31T20:05:27;16.30;99.90
22908;DHT22;11620;50.050;8.690;2022-10-31T20:08:15;16.20;99.90
22908;DHT22;11620;50.050;8.690;2022-10-31T20:11:03;16.10;99.90